sensor_id;sensor_type;location;lat;lon;timestamp;pressure;altitude;pressure_sealevel;temperature;humidity
70445;BME280;57902;49.638;11.070;2024-01-30T00:00:44;99670.09;;;-1.18;100.00
70445;BME280;57902;49.638;11.070;2024-01-30T00:03:11;99678.66;;;-1.16;100.00
70445;BME280;57902;49.638;11.070;2024-01-30T00:05:38;99674.44;;;-1.15;100.00
70445;BME280;57902;49.638;11.070;2024-01-30T00:08:05;99670.09;;;-1.18;100.00
70445;BME280;57902;49.638;11.070;2024-01-30T00:10:31;99671.91;;;-1.15;100.00
70445;BME280;57902;49.638;11.070;2024-01-30T00:12:58;99681.47;;;-1.08;100.00
70445;BME280;57902;49.638;11.070;2024-01-30T00:15:24;99674.25;;;-1.20;100.00
70445;BME280;57902;49.638;11.070;2024-01-30T00:17:51;99685.91;;;-1.24;100.00
70445;BME280;57902;49.638;11.070;2024-01-30T00:20:20;99686.13;;;-1.19;100.00
70445;BME280;57902;49.638;11.070;2024-01-30T00:22:47;99686.91;;;-1.20;100.00
70445;BME280;57902;49.638;11.070;2024-01-30T00:25:13;99685.06;;;-1.24;100.00
70445;BME280;57902;49.638;11.070;2024-01-30T00:27:40;99684.94;;;-1.27;100.00
70445;BME280;57902;49.638;11.070;2024-01-30T00:30:07;99678.75;;;-1.34;100.00
70445;BME280;57902;49.638;11.070;2024-01-30T00:32:34;99682.84;;;-1.37;100.00
70445;BME280;57902;49.638;11.070;2024-01-30T00:35:01;99671.97;;;-1.35;100.00
70445;BME280;57902;49.638;11.070;2024-01-30T00:37:28;99672.91;;;-1.33;100.00
70445;BME280;57902;49.638;11.070;2024-01-30T00:39:54;99675.31;;;-1.36;100.00
70445;BME280;57902;49.638;11.070;2024-01-30T00:42:21;99670.25;;;-1.36;100.00
70445;BME280;57902;49.638;11.070;2024-01-30T00:44:50;99668.63;;;-1.34;100.00
70445;BME280;57902;49.638;11.070;2024-01-30T00:47:16;99667.78;;;-1.34;100.00
70445;BME280;57902;49.638;11.070;2024-01-30T00:49:43;99667.91;;;-1.31;100.00
70445;BME280;57902;49.638;11.070;2024-01-30T00:52:09;99666.16;;;-1.32;100.00
70445;BME280;57902;49.638;11.070;2024-01-30T00:54:36;99667.22;;;-1.27;100.00
70445;BME280;57902;49.638;11.070;2024-01-30T00:57:03;99666.31;;;-1.29;100.00
70445;BME280;57902;49.638;11.070;2024-01-30T00:59:29;99669.69;;;-1.29;100.00
70445;BME280;57902;49.638;11.070;2024-01-30T01:01:56;99673.19;;;-1.25;100.00
70445;BME280;57902;49.638;11.070;2024-01-30T01:04:23;99672.41;;;-1.24;100.00
70445;BME280;57902;49.638;11.070;2024-01-30T01:06:49;99676.53;;;-1.05;100.00
70445;BME280;57902;49.638;11.070;2024-01-30T01:09:16;99670.16;;;-1.16;100.00
70445;BME280;57902;49.638;11.070;2024-01-30T01:11:43;99674.50;;;-1.14;100.00
70445;BME280;57902;49.638;11.070;2024-01-30T01:14:10;99672.03;;;-1.33;100.00
70445;BME280;57902;49.638;11.070;2024-01-30T01:16:36;99665.56;;;-1.48;100.00
70445;BME280;57902;49.638;11.070;2024-01-30T01:19:03;99667.25;;;-1.68;100.00
70445;BME280;57902;49.638;11.070;2024-01-30T01:21:31;99661.47;;;-1.65;100.00
70445;BME280;57902;49.638;11.070;2024-01-30T01:23:57;99662.19;;;-1.68;100.00
70445;BME280;57902;49.638;11.070;2024-01-30T01:26:24;99665.72;;;-1.64;100.00
70445;BME280;57902;49.638;11.070;2024-01-30T01:28:50;99664.31;;;-1.58;100.00
70445;BME280;57902;49.638;11.070;2024-01-30T01:31:17;99670.50;;;-1.51;100.00
70445;BME280;57902;49.638;11.070;2024-01-30T01:33:44;99667.06;;;-1.51;100.00
70445;BME280;57902;49.638;11.070;2024-01-30T01:36:13;99667.00;;;-1.53;100.00
70445;BME280;57902;49.638;11.070;2024-01-30T01:38:40;99665.97;;;-1.58;100.00
70445;BME280;57902;49.638;11.070;2024-01-30T01:41:06;99662.06;;;-1.71;100.00
70445;BME280;57902;49.638;11.070;2024-01-30T01:43:33;99664.28;;;-1.79;100.00
70445;BME280;57902;49.638;11.070;2024-01-30T01:45:59;99659.94;;;-1.81;100.00
70445;BME280;57902;49.638;11.070;2024-01-30T01:48:26;99655.63;;;-1.84;100.00
70445;BME280;57902;49.638;11.070;2024-01-30T01:50:53;99646.88;;;-1.92;100.00
70445;BME280;57902;49.638;11.070;2024-01-30T01:53:20;99647.91;;;-1.87;100.00
70445;BME280;57902;49.638;11.070;2024-01-30T01:55:47;99647.78;;;-1.90;100.00
70445;BME280;57902;49.638;11.070;2024-01-30T01:58:14;99646.94;;;-1.90;100.00
70445;BME280;57902;49.638;11.070;2024-01-30T02:00:41;99643.69;;;-1.88;100.00
70445;BME280;57902;49.638;11.070;2024-01-30T02:03:10;99643.69;;;-1.88;100.00
70445;BME280;57902;49.638;11.070;2024-01-30T02:05:38;99642.94;;;-1.85;100.00
70445;BME280;57902;49.638;11.070;2024-01-30T02:08:05;99637.09;;;-1.84;100.00
70445;BME280;57902;49.638;11.070;2024-01-30T02:10:32;99631.25;;;-1.83;100.00
70445;BME280;57902;49.638;11.070;2024-01-30T02:12:58;99622.84;;;-1.82;100.00
70445;BME280;57902;49.638;11.070;2024-01-30T02:15:25;99616.00;;;-1.85;100.00
70445;BME280;57902;49.638;11.070;2024-01-30T02:17:51;99621.13;;;-1.83;100.00
70445;BME280;57902;49.638;11.070;2024-01-30T02:20:18;99620.31;;;-1.82;100.00
70445;BME280;57902;49.638;11.070;2024-01-30T02:22:46;99620.59;;;-1.76;100.00
70445;BME280;57902;49.638;11.070;2024-01-30T02:25:13;99630.31;;;-1.43;100.00
70445;BME280;57902;49.638;11.070;2024-01-30T02:27:40;99627.56;;;-1.49;100.00
70445;BME280;57902;49.638;11.070;2024-01-30T02:30:06;99632.19;;;-1.39;100.00
70445;BME280;57902;49.638;11.070;2024-01-30T02:32:33;99632.41;;;-1.33;100.00
70445;BME280;57902;49.638;11.070;2024-01-30T02:35:00;99633.72;;;-1.21;100.00
70445;BME280;57902;49.638;11.070;2024-01-30T02:37:27;99642.72;;;-1.28;100.00
70445;BME280;57902;49.638;11.070;2024-01-30T02:39:53;99636.06;;;-1.47;100.00
70445;BME280;57902;49.638;11.070;2024-01-30T02:42:20;99634.06;;;-1.54;100.00
70445;BME280;57902;49.638;11.070;2024-01-30T02:44:46;99632.34;;;-1.34;100.00
70445;BME280;57902;49.638;11.070;2024-01-30T02:47:13;99625.44;;;-1.38;100.00
70445;BME280;57902;49.638;11.070;2024-01-30T02:49:40;99619.84;;;-1.52;100.00
70445;BME280;57902;49.638;11.070;2024-01-30T02:52:06;99625.56;;;-1.56;100.00
70445;BME280;57902;49.638;11.070;2024-01-30T02:54:33;99632.25;;;-1.59;100.00
70445;BME280;57902;49.638;11.070;2024-01-30T02:56:59;99639.25;;;-1.51;100.00
70445;BME280;57902;49.638;11.070;2024-01-30T02:59:26;99647.84;;;-1.48;100.00
70445;BME280;57902;49.638;11.070;2024-01-30T03:01:52;99639.75;;;-1.60;100.00
70445;BME280;57902;49.638;11.070;2024-01-30T03:04:19;99628.59;;;-1.65;100.00
70445;BME280;57902;49.638;11.070;2024-01-30T03:06:46;99628.66;;;-1.64;100.00
70445;BME280;57902;49.638;11.070;2024-01-30T03:09:16;99627.72;;;-1.45;100.00
70445;BME280;57902;49.638;11.070;2024-01-30T03:11:43;99624.91;;;-1.52;100.00
70445;BME280;57902;49.638;11.070;2024-01-30T03:14:09;99621.97;;;-1.62;100.00
70445;BME280;57902;49.638;11.070;2024-01-30T03:16:39;99616.81;;;-1.65;100.00
70445;BME280;57902;49.638;11.070;2024-01-30T03:19:06;99620.09;;;-1.67;100.00
70445;BME280;57902;49.638;11.070;2024-01-30T03:21:35;99623.22;;;-1.73;100.00
70445;BME280;57902;49.638;11.070;2024-01-30T03:24:02;99617.91;;;-1.79;100.00
70445;BME280;57902;49.638;11.070;2024-01-30T03:26:29;99616.06;;;-1.83;100.00
70445;BME280;57902;49.638;11.070;2024-01-30T03:28:55;99616.06;;;-1.83;100.00
70445;BME280;57902;49.638;11.070;2024-01-30T03:31:22;99614.34;;;-1.84;100.00
70445;BME280;57902;49.638;11.070;2024-01-30T03:33:49;99615.94;;;-1.86;100.00
70445;BME280;57902;49.638;11.070;2024-01-30T03:36:16;99619.00;;;-1.94;100.00
70445;BME280;57902;49.638;11.070;2024-01-30T03:38:42;99630.22;;;-1.87;100.00
70445;BME280;57902;49.638;11.070;2024-01-30T03:41:09;99631.59;;;-1.95;100.00
70445;BME280;57902;49.638;11.070;2024-01-30T03:43:36;99632.56;;;-1.91;100.00
70445;BME280;57902;49.638;11.070;2024-01-30T03:46:03;99637.56;;;-1.93;100.00
70445;BME280;57902;49.638;11.070;2024-01-30T03:48:30;99636.78;;;-1.92;100.00
70445;BME280;57902;49.638;11.070;2024-01-30T03:50:57;99640.88;;;-1.94;100.00
70445;BME280;57902;49.638;11.070;2024-01-30T03:53:23;99629.13;;;-1.94;100.00
70445;BME280;57902;49.638;11.070;2024-01-30T03:55:50;99623.53;;;-2.06;100.00
70445;BME280;57902;49.638;11.070;2024-01-30T03:58:16;99637.59;;;-2.13;100.00
70445;BME280;57902;49.638;11.070;2024-01-30T04:00:43;99631.19;;;-2.24;100.00
70445;BME280;57902;49.638;11.070;2024-01-30T04:03:11;99636.06;;;-2.29;100.00
70445;BME280;57902;49.638;11.070;2024-01-30T04:05:38;99636.97;;;-2.26;100.00
70445;BME280;57902;49.638;11.070;2024-01-30T04:08:04;99637.78;;;-2.27;100.00
70445;BME280;57902;49.638;11.070;2024-01-30T04:10:31;99636.50;;;-2.37;100.00
70445;BME280;57902;49.638;11.070;2024-01-30T04:12:58;99640.09;;;-2.32;100.00
70445;BME280;57902;49.638;11.070;2024-01-30T04:15:24;99638.97;;;-2.39;100.00
70445;BME280;57902;49.638;11.070;2024-01-30T04:17:51;99636.66;;;-2.34;100.00
70445;BME280;57902;49.638;11.070;2024-01-30T04:20:18;99637.22;;;-2.40;100.00
70445;BME280;57902;49.638;11.070;2024-01-30T04:22:45;99636.13;;;-2.47;100.00
70445;BME280;57902;49.638;11.070;2024-01-30T04:25:13;99642.28;;;-2.40;100.00
70445;BME280;57902;49.638;11.070;2024-01-30T04:27:39;99642.34;;;-2.38;100.00
70445;BME280;57902;49.638;11.070;2024-01-30T04:30:07;99642.28;;;-2.40;100.00
70445;BME280;57902;49.638;11.070;2024-01-30T04:32:34;99643.06;;;-2.41;100.00
70445;BME280;57902;49.638;11.070;2024-01-30T04:35:01;99639.56;;;-2.44;100.00
70445;BME280;57902;49.638;11.070;2024-01-30T04:37:31;99645.41;;;-2.46;100.00
70445;BME280;57902;49.638;11.070;2024-01-30T04:39:57;99647.28;;;-2.41;100.00
70445;BME280;57902;49.638;11.070;2024-01-30T04:42:24;99645.91;;;-2.35;100.00
70445;BME280;57902;49.638;11.070;2024-01-30T04:44:51;99650.81;;;-2.38;100.00
70445;BME280;57902;49.638;11.070;2024-01-30T04:47:17;99644.88;;;-2.38;100.00
70445;BME280;57902;49.638;11.070;2024-01-30T04:49:44;99656.84;;;-2.34;100.00
70445;BME280;57902;49.638;11.070;2024-01-30T04:52:10;99656.91;;;-2.33;100.00
70445;BME280;57902;49.638;11.070;2024-01-30T04:54:37;99663.63;;;-2.33;100.00
70445;BME280;57902;49.638;11.070;2024-01-30T04:57:04;99662.16;;;-2.28;100.00
70445;BME280;57902;49.638;11.070;2024-01-30T04:59:35;99663.19;;;-2.24;100.00
70445;BME280;57902;49.638;11.070;2024-01-30T05:02:02;99665.78;;;-2.23;100.00
70445;BME280;57902;49.638;11.070;2024-01-30T05:04:29;99664.94;;;-2.22;100.00
70445;BME280;57902;49.638;11.070;2024-01-30T05:06:55;99663.44;;;-2.18;100.00
70445;BME280;57902;49.638;11.070;2024-01-30T05:09:22;99665.31;;;-2.14;100.00
70445;BME280;57902;49.638;11.070;2024-01-30T05:11:49;99666.22;;;-2.12;100.00
70445;BME280;57902;49.638;11.070;2024-01-30T05:14:15;99667.25;;;-2.08;100.00
70445;BME280;57902;49.638;11.070;2024-01-30T05:16:42;99665.63;;;-2.06;100.00
70445;BME280;57902;49.638;11.070;2024-01-30T05:19:13;99662.50;;;-2.01;100.00
70445;BME280;57902;49.638;11.070;2024-01-30T05:21:41;99665.16;;;-1.98;100.00
70445;BME280;57902;49.638;11.070;2024-01-30T05:24:08;99660.25;;;-1.95;100.00
70445;BME280;57902;49.638;11.070;2024-01-30T05:26:36;99659.56;;;-1.90;100.00
70445;BME280;57902;49.638;11.070;2024-01-30T05:29:03;99662.16;;;-1.89;100.00
70445;BME280;57902;49.638;11.070;2024-01-30T05:31:30;99664.50;;;-1.94;100.00
70445;BME280;57902;49.638;11.070;2024-01-30T05:33:56;99661.97;;;-1.94;100.00
70445;BME280;57902;49.638;11.070;2024-01-30T05:36:23;99670.66;;;-1.87;100.00
70445;BME280;57902;49.638;11.070;2024-01-30T05:38:50;99661.44;;;-1.86;100.00
70445;BME280;57902;49.638;11.070;2024-01-30T05:41:16;99663.28;;;-1.82;100.00
70445;BME280;57902;49.638;11.070;2024-01-30T05:43:43;99655.69;;;-1.82;100.00
70445;BME280;57902;49.638;11.070;2024-01-30T05:46:09;99659.72;;;-1.66;100.00
70445;BME280;57902;49.638;11.070;2024-01-30T05:48:36;99662.50;;;-1.60;100.00
70445;BME280;57902;49.638;11.070;2024-01-30T05:51:02;99665.91;;;-1.60;100.00
70445;BME280;57902;49.638;11.070;2024-01-30T05:53:30;99669.41;;;-1.56;100.00
70445;BME280;57902;49.638;11.070;2024-01-30T05:55:57;99664.44;;;-1.54;100.00
70445;BME280;57902;49.638;11.070;2024-01-30T05:58:23;99666.28;;;-1.50;100.00
70445;BME280;57902;49.638;11.070;2024-01-30T06:00:50;99666.34;;;-1.49;100.00
70445;BME280;57902;49.638;11.070;2024-01-30T06:03:17;99672.41;;;-1.45;100.00
70445;BME280;57902;49.638;11.070;2024-01-30T06:05:43;99669.19;;;-1.41;100.00
70445;BME280;57902;49.638;11.070;2024-01-30T06:08:10;99677.03;;;-1.35;100.00
70445;BME280;57902;49.638;11.070;2024-01-30T06:10:36;99674.03;;;-1.26;100.00
70445;BME280;57902;49.638;11.070;2024-01-30T06:13:03;99666.16;;;-1.11;100.00
70445;BME280;57902;49.638;11.070;2024-01-30T06:15:30;99661.00;;;-0.92;100.00
70445;BME280;57902;49.638;11.070;2024-01-30T06:17:56;99672.75;;;-0.71;100.00
70445;BME280;57902;49.638;11.070;2024-01-30T06:20:23;99668.91;;;-0.61;100.00
70445;BME280;57902;49.638;11.070;2024-01-30T06:22:50;99670.28;;;-0.47;100.00
70445;BME280;57902;49.638;11.070;2024-01-30T06:25:16;99673.59;;;-0.25;100.00
70445;BME280;57902;49.638;11.070;2024-01-30T06:27:43;99665.50;;;-0.15;100.00
70445;BME280;57902;49.638;11.070;2024-01-30T06:30:10;99670.97;;;-0.04;100.00
70445;BME280;57902;49.638;11.070;2024-01-30T06:32:37;99673.84;;;0.05;100.00
70445;BME280;57902;49.638;11.070;2024-01-30T06:35:05;99665.78;;;0.17;100.00
70445;BME280;57902;49.638;11.070;2024-01-30T06:37:32;99666.91;;;0.25;100.00
70445;BME280;57902;49.638;11.070;2024-01-30T06:39:59;99668.97;;;0.36;100.00
70445;BME280;57902;49.638;11.070;2024-01-30T06:42:25;99671.09;;;0.49;100.00
70445;BME280;57902;49.638;11.070;2024-01-30T06:44:52;99669.78;;;0.60;100.00
70445;BME280;57902;49.638;11.070;2024-01-30T06:47:18;99667.38;;;0.65;100.00
70445;BME280;57902;49.638;11.070;2024-01-30T06:49:45;99669.13;;;0.67;100.00
70445;BME280;57902;49.638;11.070;2024-01-30T06:52:12;99671.06;;;0.75;100.00
70445;BME280;57902;49.638;11.070;2024-01-30T06:54:39;99668.78;;;0.82;100.00
70445;BME280;57902;49.638;11.070;2024-01-30T06:57:06;99670.44;;;0.82;100.00
70445;BME280;57902;49.638;11.070;2024-01-30T06:59:38;99674.91;;;0.89;100.00
70445;BME280;57902;49.638;11.070;2024-01-30T07:02:10;99677.53;;;0.92;99.71
70445;BME280;57902;49.638;11.070;2024-01-30T07:04:37;99674.34;;;0.98;99.47
70445;BME280;57902;49.638;11.070;2024-01-30T07:07:06;99681.47;;;1.10;98.06
70445;BME280;57902;49.638;11.070;2024-01-30T07:09:38;99686.06;;;1.21;96.77
70445;BME280;57902;49.638;11.070;2024-01-30T07:12:05;99690.53;;;1.29;94.89
70445;BME280;57902;49.638;11.070;2024-01-30T07:14:33;99686.47;;;1.34;96.09
70445;BME280;57902;49.638;11.070;2024-01-30T07:16:59;99686.81;;;1.46;96.42
70445;BME280;57902;49.638;11.070;2024-01-30T07:19:26;99693.78;;;1.53;95.18
70445;BME280;57902;49.638;11.070;2024-01-30T07:21:52;99690.72;;;1.64;93.37
70445;BME280;57902;49.638;11.070;2024-01-30T07:24:19;99696.69;;;1.66;93.01
70445;BME280;57902;49.638;11.070;2024-01-30T07:26:45;99690.06;;;1.71;92.45
70445;BME280;57902;49.638;11.070;2024-01-30T07:29:12;99697.00;;;1.77;91.98
70445;BME280;57902;49.638;11.070;2024-01-30T07:31:39;99690.72;;;1.94;91.34
70445;BME280;57902;49.638;11.070;2024-01-30T07:34:06;99693.22;;;1.92;91.58
70445;BME280;57902;49.638;11.070;2024-01-30T07:36:33;99694.06;;;1.93;90.49
70445;BME280;57902;49.638;11.070;2024-01-30T07:38:59;99690.28;;;2.09;90.14
70445;BME280;57902;49.638;11.070;2024-01-30T07:41:26;99695.66;;;2.20;88.90
70445;BME280;57902;49.638;11.070;2024-01-30T07:43:53;99687.34;;;2.27;88.51
70445;BME280;57902;49.638;11.070;2024-01-30T07:46:20;99698.75;;;2.41;88.38
70445;BME280;57902;49.638;11.070;2024-01-30T07:48:47;99702.59;;;2.59;87.26
70445;BME280;57902;49.638;11.070;2024-01-30T07:51:14;99701.84;;;2.61;86.85
70445;BME280;57902;49.638;11.070;2024-01-30T07:53:40;99702.34;;;2.83;86.18
70445;BME280;57902;49.638;11.070;2024-01-30T07:56:08;99700.03;;;2.92;86.10
70445;BME280;57902;49.638;11.070;2024-01-30T07:58:34;99703.03;;;3.12;84.78
70445;BME280;57902;49.638;11.070;2024-01-30T08:01:01;99709.91;;;3.15;83.76
70445;BME280;57902;49.638;11.070;2024-01-30T08:03:28;99711.16;;;3.32;82.40
70445;BME280;57902;49.638;11.070;2024-01-30T08:05:54;99712.38;;;3.50;80.84
70445;BME280;57902;49.638;11.070;2024-01-30T08:08:21;99712.34;;;3.48;81.57
70445;BME280;57902;49.638;11.070;2024-01-30T08:10:48;99713.25;;;3.14;83.16
70445;BME280;57902;49.638;11.070;2024-01-30T08:13:16;99724.03;;;3.39;82.89
70445;BME280;57902;49.638;11.070;2024-01-30T08:15:42;99716.97;;;3.66;80.60
70445;BME280;57902;49.638;11.070;2024-01-30T08:18:09;99714.13;;;3.51;80.68
70445;BME280;57902;49.638;11.070;2024-01-30T08:20:36;99719.22;;;3.51;81.32
70445;BME280;57902;49.638;11.070;2024-01-30T08:23:02;99715.84;;;3.54;81.99
70445;BME280;57902;49.638;11.070;2024-01-30T08:25:29;99715.00;;;3.94;79.57
70445;BME280;57902;49.638;11.070;2024-01-30T08:27:56;99710.13;;;4.07;78.65
70445;BME280;57902;49.638;11.070;2024-01-30T08:30:24;99705.34;;;4.22;78.56
70445;BME280;57902;49.638;11.070;2024-01-30T08:32:51;99706.38;;;4.32;77.81
70445;BME280;57902;49.638;11.070;2024-01-30T08:35:18;99711.56;;;4.36;78.08
70445;BME280;57902;49.638;11.070;2024-01-30T08:37:45;99709.41;;;4.58;75.90
70445;BME280;57902;49.638;11.070;2024-01-30T08:40:11;99708.84;;;4.75;76.25
70445;BME280;57902;49.638;11.070;2024-01-30T08:42:38;99712.88;;;4.62;75.56
70445;BME280;57902;49.638;11.070;2024-01-30T08:45:05;99711.22;;;4.65;75.10
70445;BME280;57902;49.638;11.070;2024-01-30T08:47:32;99710.69;;;4.36;77.40
70445;BME280;57902;49.638;11.070;2024-01-30T08:49:59;99709.25;;;4.05;78.62
70445;BME280;57902;49.638;11.070;2024-01-30T08:52:26;99711.56;;;3.92;79.87
70445;BME280;57902;49.638;11.070;2024-01-30T08:54:53;99714.47;;;4.11;79.05
70445;BME280;57902;49.638;11.070;2024-01-30T08:57:20;99710.91;;;4.01;79.93
70445;BME280;57902;49.638;11.070;2024-01-30T08:59:47;99708.50;;;4.09;79.72
70445;BME280;57902;49.638;11.070;2024-01-30T09:02:14;99711.03;;;4.09;79.47
70445;BME280;57902;49.638;11.070;2024-01-30T09:04:42;99714.31;;;3.60;81.98
70445;BME280;57902;49.638;11.070;2024-01-30T09:07:09;99707.97;;;3.43;83.25
70445;BME280;57902;49.638;11.070;2024-01-30T09:09:40;99702.09;;;3.45;84.80
70445;BME280;57902;49.638;11.070;2024-01-30T09:12:07;99709.94;;;3.55;83.77
70445;BME280;57902;49.638;11.070;2024-01-30T09:14:36;99700.25;;;3.79;82.33
70445;BME280;57902;49.638;11.070;2024-01-30T09:17:03;99711.44;;;3.86;82.15
70445;BME280;57902;49.638;11.070;2024-01-30T09:19:30;99707.84;;;3.76;83.64
70445;BME280;57902;49.638;11.070;2024-01-30T09:21:57;99719.03;;;3.83;83.63
70445;BME280;57902;49.638;11.070;2024-01-30T09:24:25;99720.81;;;3.87;83.36
70445;BME280;57902;49.638;11.070;2024-01-30T09:26:52;99716.38;;;3.78;84.74
70445;BME280;57902;49.638;11.070;2024-01-30T09:29:19;99722.38;;;3.80;84.19
70445;BME280;57902;49.638;11.070;2024-01-30T09:31:46;99722.41;;;3.82;85.58
70445;BME280;57902;49.638;11.070;2024-01-30T09:34:13;99724.28;;;3.89;84.56
70445;BME280;57902;49.638;11.070;2024-01-30T09:36:40;99725.22;;;3.94;83.23
70445;BME280;57902;49.638;11.070;2024-01-30T09:39:06;99717.72;;;4.03;83.61
70445;BME280;57902;49.638;11.070;2024-01-30T09:41:42;99724.09;;;4.24;81.65
70445;BME280;57902;49.638;11.070;2024-01-30T09:44:12;99724.09;;;4.24;82.40
70445;BME280;57902;49.638;11.070;2024-01-30T09:46:39;99719.81;;;4.22;82.31
70445;BME280;57902;49.638;11.070;2024-01-30T09:49:08;99724.78;;;4.17;82.60
70445;BME280;57902;49.638;11.070;2024-01-30T09:51:35;99720.22;;;4.00;84.83
70445;BME280;57902;49.638;11.070;2024-01-30T09:54:02;99725.69;;;4.17;84.84
70445;BME280;57902;49.638;11.070;2024-01-30T09:56:29;99719.28;;;4.40;82.48
70445;BME280;57902;49.638;11.070;2024-01-30T09:58:56;99717.84;;;4.08;84.69
70445;BME280;57902;49.638;11.070;2024-01-30T10:01:22;99720.84;;;4.33;84.03
70445;BME280;57902;49.638;11.070;2024-01-30T10:03:50;99721.56;;;4.26;83.64
70445;BME280;57902;49.638;11.070;2024-01-30T10:06:19;99724.53;;;4.49;82.00
70445;BME280;57902;49.638;11.070;2024-01-30T10:08:49;99712.38;;;4.35;82.60
70445;BME280;57902;49.638;11.070;2024-01-30T10:11:15;99719.94;;;4.29;83.71
70445;BME280;57902;49.638;11.070;2024-01-30T10:13:42;99725.19;;;4.37;83.12
70445;BME280;57902;49.638;11.070;2024-01-30T10:16:09;99724.28;;;4.33;83.57
70445;BME280;57902;49.638;11.070;2024-01-30T10:18:35;99715.91;;;4.41;83.07
70445;BME280;57902;49.638;11.070;2024-01-30T10:21:02;99712.34;;;4.32;83.71
70445;BME280;57902;49.638;11.070;2024-01-30T10:23:29;99712.84;;;4.60;81.50
70445;BME280;57902;49.638;11.070;2024-01-30T10:26:03;99713.84;;;4.23;84.89
70445;BME280;57902;49.638;11.070;2024-01-30T10:28:30;99720.72;;;4.25;84.18
70445;BME280;57902;49.638;11.070;2024-01-30T10:30:58;99715.72;;;4.31;84.93
70445;BME280;57902;49.638;11.070;2024-01-30T10:33:31;99713.63;;;4.56;83.24
70445;BME280;57902;49.638;11.070;2024-01-30T10:36:03;99717.09;;;4.60;83.87
70445;BME280;57902;49.638;11.070;2024-01-30T10:38:31;99709.75;;;4.80;83.41
70445;BME280;57902;49.638;11.070;2024-01-30T10:40:59;99716.41;;;4.68;83.19
70445;BME280;57902;49.638;11.070;2024-01-30T10:43:31;99709.94;;;4.90;80.78
70445;BME280;57902;49.638;11.070;2024-01-30T10:48:36;99705.69;;;4.91;81.24
70445;BME280;57902;49.638;11.070;2024-01-30T10:51:09;99708.78;;;4.71;83.58
70445;BME280;57902;49.638;11.070;2024-01-30T10:53:37;99707.16;;;4.77;82.45
70445;BME280;57902;49.638;11.070;2024-01-30T10:56:05;99707.28;;;4.84;83.54
70445;BME280;57902;49.638;11.070;2024-01-30T10:58:32;99698.94;;;4.96;82.51
70445;BME280;57902;49.638;11.070;2024-01-30T11:00:59;99702.63;;;5.14;82.55
70445;BME280;57902;49.638;11.070;2024-01-30T11:03:26;99705.28;;;5.20;81.55
70445;BME280;57902;49.638;11.070;2024-01-30T11:05:53;99705.38;;;5.26;82.04
70445;BME280;57902;49.638;11.070;2024-01-30T11:08:24;99712.84;;;5.14;82.31
70445;BME280;57902;49.638;11.070;2024-01-30T11:10:56;99707.00;;;5.21;82.63
70445;BME280;57902;49.638;11.070;2024-01-30T11:13:29;99702.94;;;5.34;81.06
70445;BME280;57902;49.638;11.070;2024-01-30T11:16:05;99699.44;;;5.27;81.48
70445;BME280;57902;49.638;11.070;2024-01-30T11:18:33;99695.59;;;5.57;80.15
70445;BME280;57902;49.638;11.070;2024-01-30T11:21:04;99701.50;;;5.54;81.66
70445;BME280;57902;49.638;11.070;2024-01-30T11:23:33;99690.56;;;5.66;80.50
70445;BME280;57902;49.638;11.070;2024-01-30T11:26:00;99689.81;;;5.72;79.95
70445;BME280;57902;49.638;11.070;2024-01-30T11:28:32;99685.38;;;5.58;80.75
70445;BME280;57902;49.638;11.070;2024-01-30T11:31:05;99687.84;;;5.51;80.95
70445;BME280;57902;49.638;11.070;2024-01-30T11:33:33;99685.66;;;5.82;80.91
70445;BME280;57902;49.638;11.070;2024-01-30T11:36:01;99687.53;;;5.95;79.63
70445;BME280;57902;49.638;11.070;2024-01-30T11:38:28;99679.75;;;5.87;79.46
70445;BME280;57902;49.638;11.070;2024-01-30T11:40:55;99678.13;;;5.95;79.73
70445;BME280;57902;49.638;11.070;2024-01-30T11:43:24;99678.41;;;6.17;78.91
70445;BME280;57902;49.638;11.070;2024-01-30T11:45:51;99675.81;;;6.12;77.78
70445;BME280;57902;49.638;11.070;2024-01-30T11:48:18;99676.00;;;6.34;76.30
70445;BME280;57902;49.638;11.070;2024-01-30T11:50:45;99671.78;;;6.38;76.60
70445;BME280;57902;49.638;11.070;2024-01-30T11:53:11;99671.78;;;6.38;76.72
70445;BME280;57902;49.638;11.070;2024-01-30T11:55:38;99672.63;;;6.38;76.10
70445;BME280;57902;49.638;11.070;2024-01-30T11:58:05;99663.84;;;6.13;78.50
70445;BME280;57902;49.638;11.070;2024-01-30T12:00:32;99663.16;;;6.28;77.38
70445;BME280;57902;49.638;11.070;2024-01-30T12:03:00;99657.22;;;6.32;76.92
70445;BME280;57902;49.638;11.070;2024-01-30T12:05:28;99655.56;;;6.37;77.63
70445;BME280;57902;49.638;11.070;2024-01-30T12:07:55;99648.72;;;6.36;77.77
70445;BME280;57902;49.638;11.070;2024-01-30T12:10:25;99646.25;;;6.48;76.99
70445;BME280;57902;49.638;11.070;2024-01-30T12:12:52;99647.22;;;6.57;77.88
70445;BME280;57902;49.638;11.070;2024-01-30T12:15:21;99645.50;;;6.59;77.68
70445;BME280;57902;49.638;11.070;2024-01-30T12:17:48;99642.16;;;6.69;77.21
70445;BME280;57902;49.638;11.070;2024-01-30T12:20:18;99635.38;;;6.74;77.34
70445;BME280;57902;49.638;11.070;2024-01-30T12:22:47;99630.31;;;6.80;75.94
70445;BME280;57902;49.638;11.070;2024-01-30T12:25:15;99628.66;;;6.87;75.73
70445;BME280;57902;49.638;11.070;2024-01-30T12:27:43;99622.59;;;6.77;76.50
70445;BME280;57902;49.638;11.070;2024-01-30T12:30:12;99620.91;;;6.81;76.69
70445;BME280;57902;49.638;11.070;2024-01-30T12:32:41;99616.69;;;6.91;77.20
70445;BME280;57902;49.638;11.070;2024-01-30T12:35:15;99615.09;;;7.05;76.71
70445;BME280;57902;49.638;11.070;2024-01-30T12:37:44;99610.00;;;7.14;75.66
70445;BME280;57902;49.638;11.070;2024-01-30T12:40:11;99607.44;;;7.13;75.85
70445;BME280;57902;49.638;11.070;2024-01-30T12:42:41;99608.34;;;7.20;74.63
70445;BME280;57902;49.638;11.070;2024-01-30T12:45:09;99603.25;;;7.32;74.37
70445;BME280;57902;49.638;11.070;2024-01-30T12:47:36;99599.84;;;7.33;75.09
70445;BME280;57902;49.638;11.070;2024-01-30T12:50:03;99602.44;;;7.36;75.53
70445;BME280;57902;49.638;11.070;2024-01-30T12:52:30;99597.19;;;7.17;75.79